sensor_id;sensor_type;location;lat;lon;timestamp;P1;durP1;ratioP1;P2;durP2;ratioP2
74320;SDS011;62738;45.772;4.804;2023-07-02T00:02:26;26.63;;;15.63;;
74320;SDS011;62738;45.772;4.804;2023-07-02T00:04:53;29.42;;;16.60;;
74320;SDS011;62738;45.772;4.804;2023-07-02T00:07:20;26.40;;;15.88;;
74320;SDS011;62738;45.772;4.804;2023-07-02T00:09:46;24.98;;;16.67;;
74320;SDS011;62738;45.772;4.804;2023-07-02T00:12:13;27.90;;;16.23;;
74320;SDS011;62738;45.772;4.804;2023-07-02T00:14:40;28.73;;;16.52;;
74320;SDS011;62738;45.772;4.804;2023-07-02T00:17:07;29.70;;;16.30;;
74320;SDS011;62738;45.772;4.804;2023-07-02T00:19:33;27.33;;;16.55;;
74320;SDS011;62738;45.772;4.804;2023-07-02T00:22:00;24.52;;;16.27;;
74320;SDS011;62738;45.772;4.804;2023-07-02T00:24:26;27.27;;;17.13;;
74320;SDS011;62738;45.772;4.804;2023-07-02T00:26:53;33.42;;;17.35;;
74320;SDS011;62738;45.772;4.804;2023-07-02T00:29:20;25.15;;;16.10;;
74320;SDS011;62738;45.772;4.804;2023-07-02T00:31:46;26.88;;;16.40;;
74320;SDS011;62738;45.772;4.804;2023-07-02T00:34:13;29.95;;;17.15;;
74320;SDS011;62738;45.772;4.804;2023-07-02T00:36:40;28.63;;;16.77;;
74320;SDS011;62738;45.772;4.804;2023-07-02T00:39:08;28.05;;;16.30;;
74320;SDS011;62738;45.772;4.804;2023-07-02T00:41:34;25.63;;;16.38;;
74320;SDS011;62738;45.772;4.804;2023-07-02T00:44:01;28.52;;;16.95;;
74320;SDS011;62738;45.772;4.804;2023-07-02T00:46:28;26.83;;;16.58;;
74320;SDS011;62738;45.772;4.804;2023-07-02T00:48:55;27.50;;;17.17;;
74320;SDS011;62738;45.772;4.804;2023-07-02T00:51:23;28.75;;;17.02;;
74320;SDS011;62738;45.772;4.804;2023-07-02T00:53:51;27.85;;;16.85;;
74320;SDS011;62738;45.772;4.804;2023-07-02T00:56:22;26.15;;;16.95;;
74320;SDS011;62738;45.772;4.804;2023-07-02T00:58:51;29.17;;;16.67;;
74320;SDS011;62738;45.772;4.804;2023-07-02T01:04:01;26.73;;;17.45;;
74320;SDS011;62738;45.772;4.804;2023-07-02T01:06:30;25.95;;;16.48;;
74320;SDS011;62738;45.772;4.804;2023-07-02T01:08:59;27.30;;;17.92;;
74320;SDS011;62738;45.772;4.804;2023-07-02T01:11:27;27.17;;;16.67;;
74320;SDS011;62738;45.772;4.804;2023-07-02T01:13:59;28.35;;;17.90;;
74320;SDS011;62738;45.772;4.804;2023-07-02T01:16:30;28.27;;;17.52;;
74320;SDS011;62738;45.772;4.804;2023-07-02T01:19:04;29.98;;;17.27;;
74320;SDS011;62738;45.772;4.804;2023-07-02T01:21:36;30.60;;;17.92;;
74320;SDS011;62738;45.772;4.804;2023-07-02T01:24:03;28.98;;;17.17;;
74320;SDS011;62738;45.772;4.804;2023-07-02T01:26:30;29.90;;;18.08;;
74320;SDS011;62738;45.772;4.804;2023-07-02T01:29:16;29.27;;;17.67;;
74320;SDS011;62738;45.772;4.804;2023-07-02T01:31:44;27.42;;;17.80;;
74320;SDS011;62738;45.772;4.804;2023-07-02T01:34:12;28.70;;;17.10;;
74320;SDS011;62738;45.772;4.804;2023-07-02T01:36:39;29.95;;;17.08;;
74320;SDS011;62738;45.772;4.804;2023-07-02T01:39:06;26.00;;;16.83;;
74320;SDS011;62738;45.772;4.804;2023-07-02T01:41:45;30.73;;;17.08;;
74320;SDS011;62738;45.772;4.804;2023-07-02T01:44:15;27.10;;;16.83;;
74320;SDS011;62738;45.772;4.804;2023-07-02T01:46:43;28.20;;;17.40;;
74320;SDS011;62738;45.772;4.804;2023-07-02T01:49:10;28.90;;;18.08;;
74320;SDS011;62738;45.772;4.804;2023-07-02T01:51:36;27.98;;;17.48;;
74320;SDS011;62738;45.772;4.804;2023-07-02T01:54:04;29.83;;;17.73;;
74320;SDS011;62738;45.772;4.804;2023-07-02T01:56:31;29.88;;;17.33;;
74320;SDS011;62738;45.772;4.804;2023-07-02T01:58:58;30.10;;;18.35;;
74320;SDS011;62738;45.772;4.804;2023-07-02T02:01:24;27.77;;;16.92;;
74320;SDS011;62738;45.772;4.804;2023-07-02T02:03:51;29.35;;;17.75;;
74320;SDS011;62738;45.772;4.804;2023-07-02T02:06:18;33.25;;;19.13;;
74320;SDS011;62738;45.772;4.804;2023-07-02T02:08:44;30.48;;;18.50;;
74320;SDS011;62738;45.772;4.804;2023-07-02T02:11:11;28.08;;;18.27;;
74320;SDS011;62738;45.772;4.804;2023-07-02T02:13:37;31.65;;;19.13;;
74320;SDS011;62738;45.772;4.804;2023-07-02T02:16:04;27.83;;;18.17;;
74320;SDS011;62738;45.772;4.804;2023-07-02T02:18:31;31.55;;;17.83;;
74320;SDS011;62738;45.772;4.804;2023-07-02T02:20:58;28.33;;;17.52;;
74320;SDS011;62738;45.772;4.804;2023-07-02T02:23:24;29.00;;;18.27;;
74320;SDS011;62738;45.772;4.804;2023-07-02T02:25:51;30.88;;;18.15;;
74320;SDS011;62738;45.772;4.804;2023-07-02T02:28:17;26.67;;;18.35;;
74320;SDS011;62738;45.772;4.804;2023-07-02T02:30:44;32.63;;;18.63;;
74320;SDS011;62738;45.772;4.804;2023-07-02T02:33:11;29.70;;;18.55;;
74320;SDS011;62738;45.772;4.804;2023-07-02T02:35:37;28.17;;;17.77;;
74320;SDS011;62738;45.772;4.804;2023-07-02T02:38:04;26.63;;;17.88;;
74320;SDS011;62738;45.772;4.804;2023-07-02T02:40:31;31.52;;;19.08;;
74320;SDS011;62738;45.772;4.804;2023-07-02T02:42:57;27.75;;;18.05;;
74320;SDS011;62738;45.772;4.804;2023-07-02T02:45:24;29.73;;;18.17;;
74320;SDS011;62738;45.772;4.804;2023-07-02T02:47:51;27.40;;;17.83;;
74320;SDS011;62738;45.772;4.804;2023-07-02T02:50:17;32.55;;;19.63;;
74320;SDS011;62738;45.772;4.804;2023-07-02T02:52:44;29.08;;;19.02;;
74320;SDS011;62738;45.772;4.804;2023-07-02T02:55:11;29.50;;;18.27;;
74320;SDS011;62738;45.772;4.804;2023-07-02T02:57:38;29.33;;;18.05;;
74320;SDS011;62738;45.772;4.804;2023-07-02T03:00:05;28.92;;;17.75;;
74320;SDS011;62738;45.772;4.804;2023-07-02T03:02:33;29.83;;;17.88;;
74320;SDS011;62738;45.772;4.804;2023-07-02T03:05:00;25.83;;;17.52;;
74320;SDS011;62738;45.772;4.804;2023-07-02T03:07:29;28.05;;;17.95;;
74320;SDS011;62738;45.772;4.804;2023-07-02T03:09:56;31.27;;;17.83;;
74320;SDS011;62738;45.772;4.804;2023-07-02T03:12:23;26.73;;;17.83;;
74320;SDS011;62738;45.772;4.804;2023-07-02T03:14:52;28.13;;;17.90;;
74320;SDS011;62738;45.772;4.804;2023-07-02T03:17:21;26.73;;;17.60;;
74320;SDS011;62738;45.772;4.804;2023-07-02T03:19:47;30.15;;;18.60;;
74320;SDS011;62738;45.772;4.804;2023-07-02T03:22:14;30.10;;;16.98;;
74320;SDS011;62738;45.772;4.804;2023-07-02T03:24:41;26.73;;;17.50;;
74320;SDS011;62738;45.772;4.804;2023-07-02T03:27:07;25.63;;;17.63;;
74320;SDS011;62738;45.772;4.804;2023-07-02T03:29:34;28.35;;;18.02;;
74320;SDS011;62738;45.772;4.804;2023-07-02T03:32:01;28.30;;;17.33;;
74320;SDS011;62738;45.772;4.804;2023-07-02T03:34:28;28.38;;;17.85;;
74320;SDS011;62738;45.772;4.804;2023-07-02T03:36:55;27.00;;;17.10;;
74320;SDS011;62738;45.772;4.804;2023-07-02T03:39:21;33.58;;;17.98;;
74320;SDS011;62738;45.772;4.804;2023-07-02T03:41:48;31.08;;;17.73;;
74320;SDS011;62738;45.772;4.804;2023-07-02T03:44:15;27.55;;;17.95;;
74320;SDS011;62738;45.772;4.804;2023-07-02T03:46:42;29.13;;;18.00;;
74320;SDS011;62738;45.772;4.804;2023-07-02T03:49:09;32.05;;;17.98;;
74320;SDS011;62738;45.772;4.804;2023-07-02T03:51:36;30.55;;;17.88;;
74320;SDS011;62738;45.772;4.804;2023-07-02T03:54:03;30.83;;;18.15;;
74320;SDS011;62738;45.772;4.804;2023-07-02T03:56:29;27.33;;;18.50;;
74320;SDS011;62738;45.772;4.804;2023-07-02T03:58:56;27.80;;;17.90;;
74320;SDS011;62738;45.772;4.804;2023-07-02T04:01:23;29.08;;;18.30;;
74320;SDS011;62738;45.772;4.804;2023-07-02T04:03:50;28.73;;;18.42;;
74320;SDS011;62738;45.772;4.804;2023-07-02T04:06:19;33.85;;;19.75;;
74320;SDS011;62738;45.772;4.804;2023-07-02T04:08:49;35.95;;;20.08;;
74320;SDS011;62738;45.772;4.804;2023-07-02T04:11:16;33.83;;;19.48;;
74320;SDS011;62738;45.772;4.804;2023-07-02T04:13:42;34.38;;;20.65;;
74320;SDS011;62738;45.772;4.804;2023-07-02T04:16:09;32.47;;;19.80;;
74320;SDS011;62738;45.772;4.804;2023-07-02T04:18:36;33.40;;;19.35;;
74320;SDS011;62738;45.772;4.804;2023-07-02T04:21:02;36.83;;;19.77;;
74320;SDS011;62738;45.772;4.804;2023-07-02T04:23:29;32.72;;;19.05;;
74320;SDS011;62738;45.772;4.804;2023-07-02T04:25:56;32.78;;;19.85;;
74320;SDS011;62738;45.772;4.804;2023-07-02T04:28:43;33.83;;;20.40;;
74320;SDS011;62738;45.772;4.804;2023-07-02T04:31:10;31.52;;;19.90;;
74320;SDS011;62738;45.772;4.804;2023-07-02T04:33:36;34.53;;;19.40;;
74320;SDS011;62738;45.772;4.804;2023-07-02T04:36:03;34.22;;;19.92;;
74320;SDS011;62738;45.772;4.804;2023-07-02T04:38:30;33.00;;;19.67;;
74320;SDS011;62738;45.772;4.804;2023-07-02T04:40:57;32.85;;;19.10;;
74320;SDS011;62738;45.772;4.804;2023-07-02T04:43:27;33.58;;;20.05;;
74320;SDS011;62738;45.772;4.804;2023-07-02T04:45:57;29.95;;;19.45;;
74320;SDS011;62738;45.772;4.804;2023-07-02T04:48:24;33.72;;;19.92;;
74320;SDS011;62738;45.772;4.804;2023-07-02T04:50:51;30.23;;;19.50;;
74320;SDS011;62738;45.772;4.804;2023-07-02T04:53:17;34.63;;;19.42;;
74320;SDS011;62738;45.772;4.804;2023-07-02T04:55:44;30.15;;;20.00;;
74320;SDS011;62738;45.772;4.804;2023-07-02T04:58:11;28.23;;;18.75;;
74320;SDS011;62738;45.772;4.804;2023-07-02T05:00:37;30.33;;;17.92;;
74320;SDS011;62738;45.772;4.804;2023-07-02T05:03:04;31.92;;;19.67;;
74320;SDS011;62738;45.772;4.804;2023-07-02T05:05:31;29.67;;;18.80;;
74320;SDS011;62738;45.772;4.804;2023-07-02T05:07:57;32.03;;;18.70;;
74320;SDS011;62738;45.772;4.804;2023-07-02T05:10:24;33.47;;;19.55;;
74320;SDS011;62738;45.772;4.804;2023-07-02T05:12:51;32.53;;;19.83;;
74320;SDS011;62738;45.772;4.804;2023-07-02T05:15:17;32.47;;;19.70;;
74320;SDS011;62738;45.772;4.804;2023-07-02T05:17:44;33.15;;;20.42;;
74320;SDS011;62738;45.772;4.804;2023-07-02T05:20:11;34.40;;;21.58;;
74320;SDS011;62738;45.772;4.804;2023-07-02T05:22:38;30.95;;;19.88;;
74320;SDS011;62738;45.772;4.804;2023-07-02T05:25:04;30.15;;;20.52;;
74320;SDS011;62738;45.772;4.804;2023-07-02T05:27:31;31.35;;;18.30;;
74320;SDS011;62738;45.772;4.804;2023-07-02T05:29:58;32.85;;;19.00;;
74320;SDS011;62738;45.772;4.804;2023-07-02T05:32:25;29.90;;;18.50;;
74320;SDS011;62738;45.772;4.804;2023-07-02T05:34:51;28.70;;;18.65;;
74320;SDS011;62738;45.772;4.804;2023-07-02T05:37:18;30.27;;;18.60;;
74320;SDS011;62738;45.772;4.804;2023-07-02T05:39:45;30.20;;;18.90;;
74320;SDS011;62738;45.772;4.804;2023-07-02T05:42:12;30.65;;;18.92;;
74320;SDS011;62738;45.772;4.804;2023-07-02T05:44:38;28.90;;;17.90;;
74320;SDS011;62738;45.772;4.804;2023-07-02T05:47:05;28.42;;;18.55;;
74320;SDS011;62738;45.772;4.804;2023-07-02T05:49:32;27.88;;;17.08;;
74320;SDS011;62738;45.772;4.804;2023-07-02T05:51:59;27.70;;;17.70;;
74320;SDS011;62738;45.772;4.804;2023-07-02T05:54:25;25.65;;;16.73;;
74320;SDS011;62738;45.772;4.804;2023-07-02T05:56:52;26.17;;;17.23;;
74320;SDS011;62738;45.772;4.804;2023-07-02T05:59:19;26.60;;;16.63;;
74320;SDS011;62738;45.772;4.804;2023-07-02T06:01:45;21.48;;;15.57;;
74320;SDS011;62738;45.772;4.804;2023-07-02T06:04:12;26.98;;;17.02;;
74320;SDS011;62738;45.772;4.804;2023-07-02T06:06:39;27.67;;;19.13;;
74320;SDS011;62738;45.772;4.804;2023-07-02T06:09:05;24.10;;;16.58;;
74320;SDS011;62738;45.772;4.804;2023-07-02T06:11:32;24.48;;;16.88;;
74320;SDS011;62738;45.772;4.804;2023-07-02T06:13:59;29.30;;;16.92;;
74320;SDS011;62738;45.772;4.804;2023-07-02T06:16:26;21.38;;;14.50;;
74320;SDS011;62738;45.772;4.804;2023-07-02T06:18:52;22.65;;;15.25;;
74320;SDS011;62738;45.772;4.804;2023-07-02T06:21:19;24.38;;;14.85;;
74320;SDS011;62738;45.772;4.804;2023-07-02T06:23:46;22.88;;;15.25;;
74320;SDS011;62738;45.772;4.804;2023-07-02T06:26:13;22.88;;;13.77;;
74320;SDS011;62738;45.772;4.804;2023-07-02T06:28:39;21.95;;;14.25;;
74320;SDS011;62738;45.772;4.804;2023-07-02T06:31:06;20.05;;;13.57;;
74320;SDS011;62738;45.772;4.804;2023-07-02T06:33:33;20.50;;;13.68;;
74320;SDS011;62738;45.772;4.804;2023-07-02T06:35:59;22.35;;;14.02;;
74320;SDS011;62738;45.772;4.804;2023-07-02T06:38:26;22.67;;;13.38;;
74320;SDS011;62738;45.772;4.804;2023-07-02T06:40:52;21.85;;;14.38;;
74320;SDS011;62738;45.772;4.804;2023-07-02T06:43:19;23.48;;;14.32;;
74320;SDS011;62738;45.772;4.804;2023-07-02T06:45:46;23.38;;;13.90;;
74320;SDS011;62738;45.772;4.804;2023-07-02T06:48:13;20.48;;;14.23;;
74320;SDS011;62738;45.772;4.804;2023-07-02T06:50:43;22.38;;;12.65;;
74320;SDS011;62738;45.772;4.804;2023-07-02T06:53:12;18.27;;;12.35;;
74320;SDS011;62738;45.772;4.804;2023-07-02T06:55:38;18.95;;;12.07;;
74320;SDS011;62738;45.772;4.804;2023-07-02T06:58:05;21.23;;;12.70;;
74320;SDS011;62738;45.772;4.804;2023-07-02T07:00:33;16.60;;;10.85;;
74320;SDS011;62738;45.772;4.804;2023-07-02T07:03:05;16.90;;;11.35;;
74320;SDS011;62738;45.772;4.804;2023-07-02T07:05:32;17.95;;;10.50;;
74320;SDS011;62738;45.772;4.804;2023-07-02T07:07:59;16.23;;;9.80;;
74320;SDS011;62738;45.772;4.804;2023-07-02T07:10:27;14.48;;;8.82;;
74320;SDS011;62738;45.772;4.804;2023-07-02T07:12:54;13.45;;;8.40;;
74320;SDS011;62738;45.772;4.804;2023-07-02T07:15:21;14.60;;;8.18;;
74320;SDS011;62738;45.772;4.804;2023-07-02T07:17:47;12.40;;;7.70;;
74320;SDS011;62738;45.772;4.804;2023-07-02T07:20:15;13.02;;;7.97;;
74320;SDS011;62738;45.772;4.804;2023-07-02T07:22:41;14.02;;;7.88;;
74320;SDS011;62738;45.772;4.804;2023-07-02T07:25:08;10.98;;;7.45;;
74320;SDS011;62738;45.772;4.804;2023-07-02T07:27:35;13.05;;;7.57;;
74320;SDS011;62738;45.772;4.804;2023-07-02T07:30:02;13.00;;;7.82;;
74320;SDS011;62738;45.772;4.804;2023-07-02T07:32:28;12.90;;;7.85;;
74320;SDS011;62738;45.772;4.804;2023-07-02T07:34:55;14.13;;;8.43;;
74320;SDS011;62738;45.772;4.804;2023-07-02T07:37:22;13.80;;;7.50;;
74320;SDS011;62738;45.772;4.804;2023-07-02T07:39:49;12.73;;;8.07;;
74320;SDS011;62738;45.772;4.804;2023-07-02T07:42:15;11.70;;;7.10;;
74320;SDS011;62738;45.772;4.804;2023-07-02T07:44:46;11.95;;;7.63;;
74320;SDS011;62738;45.772;4.804;2023-07-02T07:47:12;11.63;;;7.65;;
74320;SDS011;62738;45.772;4.804;2023-07-02T07:49:39;13.60;;;7.28;;
74320;SDS011;62738;45.772;4.804;2023-07-02T07:52:06;10.85;;;6.75;;
74320;SDS011;62738;45.772;4.804;2023-07-02T07:54:33;13.80;;;7.90;;
74320;SDS011;62738;45.772;4.804;2023-07-02T07:57:02;13.45;;;7.50;;
74320;SDS011;62738;45.772;4.804;2023-07-02T07:59:30;12.40;;;7.13;;
74320;SDS011;62738;45.772;4.804;2023-07-02T08:01:56;12.40;;;7.32;;
74320;SDS011;62738;45.772;4.804;2023-07-02T08:04:23;12.70;;;7.78;;
74320;SDS011;62738;45.772;4.804;2023-07-02T08:06:50;10.73;;;7.00;;
74320;SDS011;62738;45.772;4.804;2023-07-02T08:09:16;9.88;;;6.35;;
74320;SDS011;62738;45.772;4.804;2023-07-02T08:11:43;9.95;;;5.97;;
74320;SDS011;62738;45.772;4.804;2023-07-02T08:14:10;11.85;;;6.35;;
74320;SDS011;62738;45.772;4.804;2023-07-02T08:16:37;10.15;;;6.40;;
74320;SDS011;62738;45.772;4.804;2023-07-02T08:19:03;10.68;;;6.65;;
74320;SDS011;62738;45.772;4.804;2023-07-02T08:21:31;8.88;;;5.78;;
74320;SDS011;62738;45.772;4.804;2023-07-02T08:23:58;10.65;;;6.53;;
74320;SDS011;62738;45.772;4.804;2023-07-02T08:26:24;11.13;;;6.40;;
74320;SDS011;62738;45.772;4.804;2023-07-02T08:28:51;12.18;;;6.57;;
74320;SDS011;62738;45.772;4.804;2023-07-02T08:31:18;11.35;;;6.55;;
74320;SDS011;62738;45.772;4.804;2023-07-02T08:33:44;13.60;;;7.38;;
74320;SDS011;62738;45.772;4.804;2023-07-02T08:36:11;12.15;;;7.50;;
74320;SDS011;62738;45.772;4.804;2023-07-02T08:38:40;13.57;;;8.10;;
74320;SDS011;62738;45.772;4.804;2023-07-02T08:41:08;11.73;;;7.28;;
74320;SDS011;62738;45.772;4.804;2023-07-02T08:43:35;14.85;;;8.07;;
74320;SDS011;62738;45.772;4.804;2023-07-02T08:46:02;14.32;;;8.00;;
74320;SDS011;62738;45.772;4.804;2023-07-02T08:48:29;14.05;;;8.40;;
74320;SDS011;62738;45.772;4.804;2023-07-02T08:50:56;15.38;;;7.93;;
74320;SDS011;62738;45.772;4.804;2023-07-02T08:53:23;15.23;;;8.48;;
74320;SDS011;62738;45.772;4.804;2023-07-02T08:55:56;11.20;;;7.50;;
74320;SDS011;62738;45.772;4.804;2023-07-02T08:58:22;11.82;;;7.90;;
74320;SDS011;62738;45.772;4.804;2023-07-02T09:01:05;16.23;;;8.13;;
74320;SDS011;62738;45.772;4.804;2023-07-02T09:03:36;13.95;;;8.48;;
74320;SDS011;62738;45.772;4.804;2023-07-02T09:06:04;13.98;;;8.82;;
74320;SDS011;62738;45.772;4.804;2023-07-02T09:08:31;13.05;;;8.73;;
74320;SDS011;62738;45.772;4.804;2023-07-02T09:11:10;16.25;;;8.88;;
74320;SDS011;62738;45.772;4.804;2023-07-02T09:13:48;12.07;;;8.25;;
74320;SDS011;62738;45.772;4.804;2023-07-02T09:16:22;14.25;;;8.27;;
74320;SDS011;62738;45.772;4.804;2023-07-02T09:18:56;12.00;;;8.02;;
74320;SDS011;62738;45.772;4.804;2023-07-02T09:21:27;13.77;;;8.82;;
74320;SDS011;62738;45.772;4.804;2023-07-02T09:24:15;14.23;;;8.38;;
74320;SDS011;62738;45.772;4.804;2023-07-02T09:26:50;13.90;;;7.93;;
74320;SDS011;62738;45.772;4.804;2023-07-02T09:29:27;13.55;;;8.50;;
74320;SDS011;62738;45.772;4.804;2023-07-02T09:31:56;13.70;;;8.13;;
74320;SDS011;62738;45.772;4.804;2023-07-02T09:34:37;15.48;;;8.57;;
74320;SDS011;62738;45.772;4.804;2023-07-02T09:37:07;14.05;;;8.32;;
74320;SDS011;62738;45.772;4.804;2023-07-02T09:39:34;15.50;;;9.13;;
74320;SDS011;62738;45.772;4.804;2023-07-02T09:42:02;15.07;;;8.52;;
74320;SDS011;62738;45.772;4.804;2023-07-02T09:44:32;13.70;;;8.45;;
74320;SDS011;62738;45.772;4.804;2023-07-02T09:50:12;14.65;;;8.52;;
74320;SDS011;62738;45.772;4.804;2023-07-02T09:52:29;13.88;;;8.00;;
74320;SDS011;62738;45.772;4.804;2023-07-02T09:54:56;13.57;;;8.52;;
74320;SDS011;62738;45.772;4.804;2023-07-02T09:57:23;14.85;;;8.40;;
74320;SDS011;62738;45.772;4.804;2023-07-02T09:59:49;15.18;;;8.60;;
74320;SDS011;62738;45.772;4.804;2023-07-02T10:02:16;11.10;;;6.80;;
74320;SDS011;62738;45.772;4.804;2023-07-02T10:04:44;8.30;;;5.93;;
74320;SDS011;62738;45.772;4.804;2023-07-02T10:07:13;10.90;;;6.70;;
74320;SDS011;62738;45.772;4.804;2023-07-02T10:09:52;11.55;;;7.13;;
74320;SDS011;62738;45.772;4.804;2023-07-02T10:14:46;9.88;;;6.45;;
74320;SDS011;62738;45.772;4.804;2023-07-02T10:17:27;11.73;;;6.63;;
74320;SDS011;62738;45.772;4.804;2023-07-02T10:19:56;8.95;;;5.78;;
74320;SDS011;62738;45.772;4.804;2023-07-02T10:22:25;10.70;;;6.63;;
74320;SDS011;62738;45.772;4.804;2023-07-02T10:24:53;9.95;;;6.15;;
74320;SDS011;62738;45.772;4.804;2023-07-02T10:27:33;9.75;;;6.20;;
74320;SDS011;62738;45.772;4.804;2023-07-02T10:30:07;7.93;;;5.78;;
74320;SDS011;62738;45.772;4.804;2023-07-02T10:32:35;9.02;;;5.82;;
74320;SDS011;62738;45.772;4.804;2023-07-02T10:37:42;10.73;;;6.78;;
74320;SDS011;62738;45.772;4.804;2023-07-02T10:40:09;9.65;;;6.97;;
74320;SDS011;62738;45.772;4.804;2023-07-02T10:45:16;9.60;;;6.80;;
74320;SDS011;62738;45.772;4.804;2023-07-02T10:47:43;10.57;;;7.13;;
74320;SDS011;62738;45.772;4.804;2023-07-02T10:50:17;10.18;;;6.78;;
74320;SDS011;62738;45.772;4.804;2023-07-02T10:52:46;10.18;;;6.90;;
74320;SDS011;62738;45.772;4.804;2023-07-02T10:55:19;10.85;;;6.93;;
74320;SDS011;62738;45.772;4.804;2023-07-02T10:57:47;10.80;;;5.85;;
74320;SDS011;62738;45.772;4.804;2023-07-02T11:00:17;8.18;;;5.20;;
74320;SDS011;62738;45.772;4.804;2023-07-02T11:02:44;6.72;;;4.50;;
74320;SDS011;62738;45.772;4.804;2023-07-02T11:05:12;8.10;;;4.97;;
74320;SDS011;62738;45.772;4.804;2023-07-02T11:07:39;8.65;;;4.78;;
74320;SDS011;62738;45.772;4.804;2023-07-02T11:10:07;7.95;;;5.10;;
74320;SDS011;62738;45.772;4.804;2023-07-02T11:12:35;7.18;;;5.10;;
74320;SDS011;62738;45.772;4.804;2023-07-02T11:15:09;7.25;;;4.25;;
74320;SDS011;62738;45.772;4.804;2023-07-02T11:17:37;7.35;;;4.75;;
74320;SDS011;62738;45.772;4.804;2023-07-02T11:20:04;6.82;;;4.30;;
74320;SDS011;62738;45.772;4.804;2023-07-02T11:22:34;4.95;;;3.72;;
74320;SDS011;62738;45.772;4.804;2023-07-02T11:25:11;5.75;;;3.80;;
74320;SDS011;62738;45.772;4.804;2023-07-02T11:27:45;4.38;;;2.92;;
74320;SDS011;62738;45.772;4.804;2023-07-02T11:30:12;5.22;;;3.35;;
74320;SDS011;62738;45.772;4.804;2023-07-02T11:32:52;5.22;;;3.20;;
74320;SDS011;62738;45.772;4.804;2023-07-02T11:35:20;6.20;;;3.10;;
74320;SDS011;62738;45.772;4.804;2023-07-02T11:37:48;4.00;;;2.80;;
74320;SDS011;62738;45.772;4.804;2023-07-02T11:40:19;5.15;;;2.95;;
74320;SDS011;62738;45.772;4.804;2023-07-02T11:42:46;4.78;;;3.03;;
74320;SDS011;62738;45.772;4.804;2023-07-02T11:45:12;3.22;;;2.17;;
74320;SDS011;62738;45.772;4.804;2023-07-02T11:47:39;4.88;;;2.72;;
74320;SDS011;62738;45.772;4.804;2023-07-02T11:50:06;6.95;;;3.53;;
74320;SDS011;62738;45.772;4.804;2023-07-02T11:52:50;6.38;;;3.70;;
74320;SDS011;62738;45.772;4.804;2023-07-02T11:55:16;6.55;;;3.70;;
74320;SDS011;62738;45.772;4.804;2023-07-02T11:57:43;5.15;;;3.40;;
74320;SDS011;62738;45.772;4.804;2023-07-02T12:00:10;5.07;;;3.65;;
74320;SDS011;62738;45.772;4.804;2023-07-02T12:02:37;5.60;;;3.50;;
74320;SDS011;62738;45.772;4.804;2023-07-02T12:05:04;5.45;;;3.90;;
74320;SDS011;62738;45.772;4.804;2023-07-02T12:07:33;5.95;;;3.28;;
74320;SDS011;62738;45.772;4.804;2023-07-02T12:10:01;6.18;;;3.50;;
74320;SDS011;62738;45.772;4.804;2023-07-02T12:12:28;5.95;;;3.55;;
74320;SDS011;62738;45.772;4.804;2023-07-02T12:14:54;6.03;;;3.42;;
74320;SDS011;62738;45.772;4.804;2023-07-02T12:17:21;6.15;;;4.32;;
74320;SDS011;62738;45.772;4.804;2023-07-02T12:19:48;7.22;;;3.50;;
74320;SDS011;62738;45.772;4.804;2023-07-02T12:22:15;4.00;;;3.08;;
74320;SDS011;62738;45.772;4.804;2023-07-02T12:24:44;4.57;;;3.10;;
74320;SDS011;62738;45.772;4.804;2023-07-02T12:27:10;5.10;;;3.33;;
74320;SDS011;62738;45.772;4.804;2023-07-02T12:29:37;6.13;;;3.05;;
74320;SDS011;62738;45.772;4.804;2023-07-02T12:32:04;4.85;;;3.20;;
74320;SDS011;62738;45.772;4.804;2023-07-02T12:34:31;5.57;;;3.30;;
74320;SDS011;62738;45.772;4.804;2023-07-02T12:36:58;6.00;;;3.50;;
74320;SDS011;62738;45.772;4.804;2023-07-02T12:39:25;5.35;;;3.28;;
74320;SDS011;62738;45.772;4.804;2023-07-02T12:41:51;6.70;;;4.13;;
74320;SDS011;62738;45.772;4.804;2023-07-02T12:44:18;6.80;;;4.53;;
74320;SDS011;62738;45.772;4.804;2023-07-02T12:46:44;6.55;;;4.25;;
74320;SDS011;62738;45.772;4.804;2023-07-02T12:49:11;5.97;;;3.80;;
74320;SDS011;62738;45.772;4.804;2023-07-02T12:51:39;6.13;;;3.88;;
74320;SDS011;62738;45.772;4.804;2023-07-02T12:54:05;5.00;;;3.50;;
74320;SDS011;62738;45.772;4.804;2023-07-02T12:56:32;4.53;;;2.55;;
74320;SDS011;62738;45.772;4.804;2023-07-02T12:58:59;4.75;;;2.85;;
74320;SDS011;62738;45.772;4.804;2023-07-02T13:01:27;5.68;;;2.85;;
74320;SDS011;62738;45.772;4.804;2023-07-02T13:03:54;5.35;;;3.25;;
74320;SDS011;62738;45.772;4.804;2023-07-02T13:06:21;4.78;;;3.13;;
74320;SDS011;62738;45.772;4.804;2023-07-02T13:08:47;4.85;;;3.35;;
74320;SDS011;62738;45.772;4.804;2023-07-02T13:11:14;6.32;;;3.75;;
74320;SDS011;62738;45.772;4.804;2023-07-02T13:13:41;5.50;;;2.88;;
74320;SDS011;62738;45.772;4.804;2023-07-02T13:16:07;6.00;;;3.00;;
74320;SDS011;62738;45.772;4.804;2023-07-02T13:18:34;5.53;;;3.50;;
74320;SDS011;62738;45.772;4.804;2023-07-02T13:21:01;5.03;;;2.78;;
74320;SDS011;62738;45.772;4.804;2023-07-02T13:23:27;3.97;;;2.97;;
74320;SDS011;62738;45.772;4.804;2023-07-02T13:25:54;4.68;;;3.20;;
74320;SDS011;62738;45.772;4.804;2023-07-02T13:28:20;5.40;;;3.80;;
74320;SDS011;62738;45.772;4.804;2023-07-02T13:30:48;4.78;;;3.38;;
74320;SDS011;62738;45.772;4.804;2023-07-02T13:33:14;5.40;;;3.03;;
74320;SDS011;62738;45.772;4.804;2023-07-02T13:35:41;5.85;;;3.80;;
74320;SDS011;62738;45.772;4.804;2023-07-02T13:38:10;5.45;;;3.33;;
74320;SDS011;62738;45.772;4.804;2023-07-02T13:40:36;4.28;;;3.00;;
74320;SDS011;62738;45.772;4.804;2023-07-02T13:43:03;4.60;;;2.70;;
74320;SDS011;62738;45.772;4.804;2023-07-02T13:45:30;6.30;;;3.08;;
74320;SDS011;62738;45.772;4.804;2023-07-02T13:47:56;7.43;;;3.03;;
74320;SDS011;62738;45.772;4.804;2023-07-02T13:50:23;5.35;;;3.17;;
74320;SDS011;62738;45.772;4.804;2023-07-02T13:52:50;4.18;;;3.03;;
74320;SDS011;62738;45.772;4.804;2023-07-02T13:55:16;4.13;;;2.90;;
74320;SDS011;62738;45.772;4.804;2023-07-02T13:57:43;3.22;;;2.75;;
74320;SDS011;62738;45.772;4.804;2023-07-02T14:00:10;5.38;;;3.40;;
74320;SDS011;62738;45.772;4.804;2023-07-02T14:02:37;5.45;;;3.45;;
74320;SDS011;62738;45.772;4.804;2023-07-02T14:05:03;4.90;;;3.50;;
74320;SDS011;62738;45.772;4.804;2023-07-02T14:07:30;7.28;;;4.00;;
74320;SDS011;62738;45.772;4.804;2023-07-02T14:09:57;6.55;;;3.50;;
74320;SDS011;62738;45.772;4.804;2023-07-02T14:12:24;5.43;;;3.53;;
74320;SDS011;62738;45.772;4.804;2023-07-02T14:14:50;5.38;;;3.30;;
74320;SDS011;62738;45.772;4.804;2023-07-02T14:17:17;5.28;;;3.83;;
74320;SDS011;62738;45.772;4.804;2023-07-02T14:19:44;7.03;;;3.92;;
74320;SDS011;62738;45.772;4.804;2023-07-02T14:22:10;6.35;;;3.70;;
74320;SDS011;62738;45.772;4.804;2023-07-02T14:24:37;5.63;;;4.07;;
74320;SDS011;62738;45.772;4.804;2023-07-02T14:27:04;5.93;;;3.88;;
74320;SDS011;62738;45.772;4.804;2023-07-02T14:29:31;5.00;;;3.80;;
74320;SDS011;62738;45.772;4.804;2023-07-02T14:31:58;5.35;;;4.03;;
74320;SDS011;62738;45.772;4.804;2023-07-02T14:34:24;5.82;;;3.85;;
74320;SDS011;62738;45.772;4.804;2023-07-02T14:36:51;6.35;;;4.20;;
74320;SDS011;62738;45.772;4.804;2023-07-02T14:39:17;8.35;;;4.10;;
74320;SDS011;62738;45.772;4.804;2023-07-02T14:41:44;6.80;;;4.22;;
74320;SDS011;62738;45.772;4.804;2023-07-02T14:44:11;5.25;;;3.72;;
74320;SDS011;62738;45.772;4.804;2023-07-02T14:46:37;5.22;;;3.85;;
74320;SDS011;62738;45.772;4.804;2023-07-02T14:49:04;5.50;;;4.45;;
74320;SDS011;62738;45.772;4.804;2023-07-02T14:51:31;4.80;;;3.53;;